Time,TemperatureF,DewpointF,PressureIn,WindDirection,WindDirectionDegrees,WindSpeedMPH,WindSpeedGustMPH,Humidity,HourlyPrecipIn,Conditions,Clouds,dailyrainin,SolarRadiationWatts/m^2,SoftwareType,DateUTC
2013-06-01 00:22:00,43.0,40.0,-100.00,NNW,340,8.0,23.0,90,0.01,,,0.37,0.000000,,2013-06-01 06:22:00,
2013-06-01 00:32:00,43.0,40.0,-100.00,NNW,340,8.0,23.0,90,0.01,,,0.37,0.000000,,2013-06-01 06:32:00,
2013-06-01 00:42:00,43.0,40.0,-100.00,NNW,340,8.0,23.0,90,0.01,,,0.37,0.000000,,2013-06-01 06:42:00,
2013-06-01 00:52:00,43.0,40.0,-100.00,NNW,340,8.0,23.0,90,0.01,,,0.37,0.000000,,2013-06-01 06:52:00,
2013-06-01 01:22:00,42.0,40.0,-100.00,NNW,345,7.0,24.0,91,0.01,,,0.38,0.000000,,2013-06-01 07:22:00,
2013-06-01 01:32:00,42.0,40.0,-100.00,NNW,345,7.0,24.0,91,0.01,,,0.38,0.000000,,2013-06-01 07:32:00,
2013-06-01 01:42:00,42.0,40.0,-100.00,NNW,345,7.0,24.0,91,0.01,,,0.38,0.000000,,2013-06-01 07:42:00,
2013-06-01 01:52:00,42.0,40.0,-100.00,NNW,345,7.0,24.0,91,0.01,,,0.38,0.000000,,2013-06-01 07:52:00,
2013-06-01 02:21:00,42.0,39.0,-100.00,NNW,339,11.0,27.0,88,0.00,,,0.38,0.000000,,2013-06-01 08:21:00,
2013-06-01 02:32:00,42.0,39.0,-100.00,NNW,339,11.0,27.0,88,0.00,,,0.38,0.000000,,2013-06-01 08:32:00,
2013-06-01 02:42:00,42.0,39.0,-100.00,NNW,339,11.0,27.0,88,0.00,,,0.38,0.000000,,2013-06-01 08:42:00,
2013-06-01 02:52:00,42.0,39.0,-100.00,NNW,339,11.0,27.0,88,0.00,,,0.38,0.000000,,2013-06-01 08:52:00,
2013-06-01 03:21:00,41.0,37.0,-100.00,NNW,342,11.0,25.0,87,0.00,,,0.38,0.000000,,2013-06-01 09:21:00,
2013-06-01 03:33:00,41.0,37.0,-100.00,NNW,342,11.0,25.0,87,0.00,,,0.38,0.000000,,2013-06-01 09:33:00,
2013-06-01 03:42:00,41.0,37.0,-100.00,NNW,342,11.0,25.0,87,0.00,,,0.38,0.000000,,2013-06-01 09:42:00,
2013-06-01 03:53:00,41.0,37.0,-100.00,NNW,342,11.0,25.0,87,0.00,,,0.38,0.000000,,2013-06-01 09:53:00,
2013-06-01 04:22:00,40.0,37.0,-100.00,NNW,338,9.0,25.0,89,0.00,,,0.38,0.000000,,2013-06-01 10:22:00,
2013-06-01 04:33:00,40.0,37.0,-100.00,NNW,338,9.0,25.0,89,0.00,,,0.38,0.000000,,2013-06-01 10:33:00,
2013-06-01 04:42:00,40.0,37.0,-100.00,NNW,338,9.0,25.0,89,0.00,,,0.38,0.000000,,2013-06-01 10:42:00,
2013-06-01 04:52:00,40.0,37.0,-100.00,NNW,338,9.0,25.0,89,0.00,,,0.38,0.000000,,2013-06-01 10:52:00,
2013-06-01 05:21:00,39.0,37.0,-100.00,NNW,334,9.0,20.0,91,0.01,,,0.39,0.000000,,2013-06-01 11:21:00,
2013-06-01 05:32:00,39.0,37.0,-100.00,NNW,334,9.0,20.0,91,0.01,,,0.39,0.000000,,2013-06-01 11:32:00,
2013-06-01 05:42:00,39.0,37.0,-100.00,NNW,334,9.0,20.0,91,0.01,,,0.39,0.000000,,2013-06-01 11:42:00,
2013-06-01 05:52:00,39.0,37.0,-100.00,NNW,334,9.0,20.0,91,0.01,,,0.39,0.000000,,2013-06-01 11:52:00,
2013-06-01 06:21:00,40.0,36.0,-100.00,NNW,340,10.0,20.0,85,0.01,,,0.40,23.000000,,2013-06-01 12:21:00,
2013-06-01 06:32:00,40.0,36.0,-100.00,NNW,340,10.0,20.0,85,0.01,,,0.40,23.000000,,2013-06-01 12:32:00,
2013-06-01 06:42:00,40.0,36.0,-100.00,NNW,340,10.0,20.0,85,0.01,,,0.40,23.000000,,2013-06-01 12:42:00,
2013-06-01 06:52:00,40.0,36.0,-100.00,NNW,340,10.0,20.0,85,0.01,,,0.40,23.000000,,2013-06-01 12:52:00,
2013-06-01 07:22:00,43.0,38.0,-100.00,NNW,336,11.0,23.0,84,0.00,,,0.40,81.000000,,2013-06-01 13:22:00,
2013-06-01 07:32:00,43.0,38.0,-100.00,NNW,336,11.0,23.0,84,0.00,,,0.40,81.000000,,2013-06-01 13:32:00,
2013-06-01 07:42:00,43.0,38.0,-100.00,NNW,336,11.0,23.0,84,0.00,,,0.40,81.000000,,2013-06-01 13:42:00,
2013-06-01 07:52:00,43.0,38.0,-100.00,NNW,336,11.0,23.0,84,0.00,,,0.40,81.000000,,2013-06-01 13:52:00,
2013-06-01 08:21:00,46.0,38.0,-100.00,NNW,336,8.0,23.0,73,0.00,,,0.40,242.000000,,2013-06-01 14:21:00,
2013-06-01 08:32:00,46.0,38.0,-100.00,NNW,336,8.0,23.0,73,0.00,,,0.40,242.000000,,2013-06-01 14:32:00,
2013-06-01 08:42:00,46.0,38.0,-100.00,NNW,336,8.0,23.0,73,0.00,,,0.40,242.000000,,2013-06-01 14:42:00,
2013-06-01 08:52:00,46.0,38.0,-100.00,NNW,336,8.0,23.0,73,0.00,,,0.40,242.000000,,2013-06-01 14:52:00,
2013-06-01 09:21:00,49.0,36.0,-100.00,NNW,348,10.0,23.0,60,0.00,,,0.40,534.000000,,2013-06-01 15:21:00,
2013-06-01 09:33:00,49.0,36.0,-100.00,NNW,348,10.0,23.0,60,0.00,,,0.40,534.000000,,2013-06-01 15:33:00,
2013-06-01 09:43:00,49.0,36.0,-100.00,NNW,348,10.0,23.0,60,0.00,,,0.40,534.000000,,2013-06-01 15:43:00,
2013-06-01 09:53:00,49.0,36.0,-100.00,NNW,348,10.0,23.0,60,0.00,,,0.40,534.000000,,2013-06-01 15:53:00,
2013-06-01 10:23:00,50.0,33.0,-100.00,North,356,14.0,27.0,52,0.00,,,0.40,732.000000,,2013-06-01 16:23:00,
2013-06-01 10:33:00,50.0,33.0,-100.00,North,356,14.0,27.0,52,0.00,,,0.40,732.000000,,2013-06-01 16:33:00,
2013-06-01 10:42:00,50.0,33.0,-100.00,North,356,14.0,27.0,52,0.00,,,0.40,732.000000,,2013-06-01 16:42:00,
2013-06-01 10:52:00,50.0,33.0,-100.00,North,356,14.0,27.0,52,0.00,,,0.40,732.000000,,2013-06-01 16:52:00,
2013-06-01 11:22:00,50.0,36.0,-100.00,NNW,343,10.0,27.0,58,0.00,,,0.40,813.000000,,2013-06-01 17:22:00,
2013-06-01 11:32:00,50.0,36.0,-100.00,NNW,343,10.0,27.0,58,0.00,,,0.40,813.000000,,2013-06-01 17:32:00,
2013-06-01 11:42:00,50.0,36.0,-100.00,NNW,343,10.0,27.0,58,0.00,,,0.40,813.000000,,2013-06-01 17:42:00,
2013-06-01 11:52:00,50.0,36.0,-100.00,NNW,343,10.0,27.0,58,0.00,,,0.40,813.000000,,2013-06-01 17:52:00,
2013-06-01 12:22:00,53.0,38.0,-100.00,NNW,337,8.0,23.0,56,0.00,,,0.40,769.000000,,2013-06-01 18:22:00,
2013-06-01 12:32:00,53.0,38.0,-100.00,NNW,337,8.0,23.0,56,0.00,,,0.40,769.000000,,2013-06-01 18:32:00,
2013-06-01 12:42:00,53.0,38.0,-100.00,NNW,337,8.0,23.0,56,0.00,,,0.40,769.000000,,2013-06-01 18:42:00,
2013-06-01 12:51:00,53.0,38.0,-100.00,NNW,337,8.0,23.0,56,0.00,,,0.40,769.000000,,2013-06-01 18:51:00,
2013-06-01 13:21:00,54.0,37.0,-100.00,NNW,343,8.0,25.0,52,0.00,,,0.36,821.000000,,2013-06-01 19:21:00,
2013-06-01 13:32:00,54.0,37.0,-100.00,NNW,343,8.0,25.0,52,0.00,,,0.36,821.000000,,2013-06-01 19:32:00,
2013-06-01 13:42:00,54.0,37.0,-100.00,NNW,343,8.0,25.0,52,0.00,,,0.36,821.000000,,2013-06-01 19:42:00,
2013-06-01 13:52:00,54.0,37.0,-100.00,NNW,343,8.0,25.0,52,0.00,,,0.36,821.000000,,2013-06-01 19:52:00,
2013-06-01 14:12:00,56.0,36.0,-100.00,NNW,344,9.0,20.0,46,0.00,,,0.33,697.000000,,2013-06-01 20:12:00,
2013-06-01 14:21:00,56.0,36.0,-100.00,NNW,344,9.0,20.0,46,0.00,,,0.33,697.000000,,2013-06-01 20:21:00,
2013-06-01 14:32:00,56.0,36.0,-100.00,NNW,344,9.0,20.0,46,0.00,,,0.33,697.000000,,2013-06-01 20:32:00,
2013-06-01 14:42:00,56.0,36.0,-100.00,NNW,344,9.0,20.0,46,0.00,,,0.33,697.000000,,2013-06-01 20:42:00,
2013-06-01 14:52:00,56.0,36.0,-100.00,NNW,344,9.0,20.0,46,0.00,,,0.33,697.000000,,2013-06-01 20:52:00,
2013-06-01 15:21:00,56.0,35.0,-100.00,North,355,11.0,20.0,45,0.00,,,0.31,709.000000,,2013-06-01 21:21:00,
2013-06-01 15:33:00,56.0,35.0,-100.00,North,355,11.0,20.0,45,0.00,,,0.31,709.000000,,2013-06-01 21:33:00,
2013-06-01 15:42:00,56.0,35.0,-100.00,North,355,11.0,20.0,45,0.00,,,0.31,709.000000,,2013-06-01 21:42:00,
2013-06-01 15:53:00,56.0,35.0,-100.00,North,355,11.0,20.0,45,0.00,,,0.31,709.000000,,2013-06-01 21:53:00,
2013-06-01 16:23:00,58.0,35.0,-100.00,NNW,328,8.0,19.0,42,0.00,,,0.29,817.000000,,2013-06-01 22:23:00,
2013-06-01 16:33:00,58.0,35.0,-100.00,NNW,328,8.0,19.0,42,0.00,,,0.29,817.000000,,2013-06-01 22:33:00,
2013-06-01 16:42:00,58.0,35.0,-100.00,NNW,328,8.0,19.0,42,0.00,,,0.29,817.000000,,2013-06-01 22:42:00,
2013-06-01 16:53:00,58.0,35.0,-100.00,NNW,328,8.0,19.0,42,0.00,,,0.29,817.000000,,2013-06-01 22:53:00,
2013-06-01 17:22:00,58.0,36.0,-100.00,North,357,10.0,20.0,43,0.00,,,0.21,681.000000,,2013-06-01 23:22:00,
2013-06-01 17:32:00,58.0,36.0,-100.00,North,357,10.0,20.0,43,0.00,,,0.21,681.000000,,2013-06-01 23:32:00,
2013-06-01 17:42:00,58.0,36.0,-100.00,North,357,10.0,20.0,43,0.00,,,0.21,681.000000,,2013-06-01 23:42:00,
2013-06-01 17:52:00,58.0,36.0,-100.00,North,357,10.0,20.0,43,0.00,,,0.21,681.000000,,2013-06-01 23:52:00,
2013-06-01 18:22:00,58.0,37.0,-100.00,North,355,8.0,17.0,45,0.00,,,0.16,492.000000,,2013-06-02 00:22:00,
2013-06-01 18:32:00,58.0,37.0,-100.00,North,355,8.0,17.0,45,0.00,,,0.16,492.000000,,2013-06-02 00:32:00,
2013-06-01 18:42:00,58.0,37.0,-100.00,North,355,8.0,17.0,45,0.00,,,0.16,492.000000,,2013-06-02 00:42:00,
2013-06-01 18:51:00,58.0,37.0,-100.00,North,355,8.0,17.0,45,0.00,,,0.16,492.000000,,2013-06-02 00:51:00,
2013-06-01 19:21:00,56.0,38.0,-100.00,North,353,7.0,15.0,51,0.00,,,0.12,304.000000,,2013-06-02 01:21:00,
2013-06-01 19:32:00,56.0,38.0,-100.00,North,353,7.0,15.0,51,0.00,,,0.12,304.000000,,2013-06-02 01:32:00,
2013-06-01 19:42:00,56.0,38.0,-100.00,North,353,7.0,15.0,51,0.00,,,0.12,304.000000,,2013-06-02 01:42:00,
2013-06-01 19:52:00,56.0,38.0,-100.00,North,353,7.0,15.0,51,0.00,,,0.12,304.000000,,2013-06-02 01:52:00,
2013-06-01 20:21:00,51.0,38.0,-100.00,North,352,3.0,13.0,62,0.00,,,0.10,57.000000,,2013-06-02 02:21:00,
2013-06-01 20:32:00,51.0,38.0,-100.00,North,352,3.0,13.0,62,0.00,,,0.10,57.000000,,2013-06-02 02:32:00,
2013-06-01 20:42:00,51.0,38.0,-100.00,North,352,3.0,13.0,62,0.00,,,0.10,57.000000,,2013-06-02 02:42:00,
2013-06-01 20:51:00,51.0,38.0,-100.00,North,352,3.0,13.0,62,0.00,,,0.10,57.000000,,2013-06-02 02:51:00,
2013-06-01 21:21:00,43.0,39.0,-100.00,NNW,336,2.0,4.0,86,0.00,,,0.08,7.000000,,2013-06-02 03:21:00,
2013-06-01 21:33:00,43.0,39.0,-100.00,NNW,336,2.0,4.0,86,0.00,,,0.08,7.000000,,2013-06-02 03:33:00,
2013-06-01 21:43:00,43.0,39.0,-100.00,NNW,336,2.0,4.0,86,0.00,,,0.08,7.000000,,2013-06-02 03:43:00,
2013-06-01 21:52:00,43.0,39.0,-100.00,NNW,336,2.0,4.0,86,0.00,,,0.08,7.000000,,2013-06-02 03:52:00,
2013-06-01 22:23:00,39.0,37.0,-100.00,NW,325,2.0,3.0,93,0.00,,,0.07,0.000000,,2013-06-02 04:23:00,
2013-06-01 22:33:00,39.0,37.0,-100.00,NW,325,2.0,3.0,93,0.00,,,0.07,0.000000,,2013-06-02 04:33:00,
2013-06-01 22:42:00,39.0,37.0,-100.00,NW,325,2.0,3.0,93,0.00,,,0.07,0.000000,,2013-06-02 04:42:00,
2013-06-01 22:52:00,39.0,37.0,-100.00,NW,325,2.0,3.0,93,0.00,,,0.07,0.000000,,2013-06-02 04:52:00,
2013-06-01 23:22:00,36.0,34.0,-100.00,NW,326,3.0,4.0,94,0.00,,,0.04,0.000000,,2013-06-02 05:22:00,
2013-06-01 23:32:00,36.0,34.0,-100.00,NW,326,3.0,4.0,94,0.00,,,0.04,0.000000,,2013-06-02 05:32:00,
2013-06-01 23:42:00,36.0,34.0,-100.00,NW,326,3.0,4.0,94,0.00,,,0.04,0.000000,,2013-06-02 05:42:00,
2013-06-01 23:52:00,36.0,34.0,-100.00,NW,326,3.0,4.0,94,0.00,,,0.04,0.000000,,2013-06-02 05:52:00,